createdAt,value
2023-03-03T00:01:30.648Z,-1.52
2023-03-03T00:03:58.706Z,-1.53
2023-03-03T00:06:26.970Z,-1.51
2023-03-03T00:08:56.666Z,-1.48
2023-03-03T00:11:24.731Z,-1.46
2023-03-03T00:13:53.663Z,-1.51
2023-03-03T00:16:25.076Z,-1.49
2023-03-03T00:18:53.315Z,-1.51
2023-03-03T00:21:29.218Z,-1.52
2023-03-03T00:24:18.217Z,-1.51
2023-03-03T00:26:46.756Z,-1.52
2023-03-03T00:29:35.797Z,-1.53
2023-03-03T00:32:19.209Z,-1.52
2023-03-03T00:34:47.794Z,-1.55
2023-03-03T00:37:29.236Z,-1.57
2023-03-03T00:40:11.063Z,-1.61
2023-03-03T00:42:39.136Z,-1.60
2023-03-03T00:45:18.857Z,-1.57
2023-03-03T00:47:46.887Z,-1.56
2023-03-03T00:50:31.053Z,-1.56
2023-03-03T00:53:04.329Z,-1.54
2023-03-03T00:55:34.250Z,-1.50
2023-03-03T00:58:02.506Z,-1.49
2023-03-03T01:00:35.295Z,-1.47
2023-03-03T01:03:06.016Z,-1.56
2023-03-03T01:05:34.169Z,-1.58
2023-03-03T01:08:02.269Z,-1.59
2023-03-03T01:10:31.506Z,-1.62
2023-03-03T01:13:01.995Z,-1.64
2023-03-03T01:15:30.051Z,-1.56
2023-03-03T01:17:58.411Z,-1.52
2023-03-03T01:20:26.848Z,-1.48
2023-03-03T01:22:54.926Z,-1.47
2023-03-03T01:25:23.005Z,-1.48
2023-03-03T01:27:51.010Z,-1.46
2023-03-03T01:30:21.045Z,-1.45
2023-03-03T01:32:49.131Z,-1.44
2023-03-03T01:35:17.280Z,-1.45
2023-03-03T01:37:45.344Z,-1.48
2023-03-03T01:40:18.003Z,-1.48
2023-03-03T01:42:46.032Z,-1.53
2023-03-03T01:45:21.050Z,-1.56
2023-03-03T01:47:53.054Z,-1.58
2023-03-03T01:50:28.175Z,-1.64
2023-03-03T01:52:56.257Z,-1.62
2023-03-03T01:55:26.362Z,-1.67
2023-03-03T01:57:57.833Z,-1.65
2023-03-03T02:00:27.932Z,-1.65
2023-03-03T02:02:56.110Z,-1.63
2023-03-03T02:05:24.360Z,-1.61
2023-03-03T02:07:52.493Z,-1.53
2023-03-03T02:10:21.274Z,-1.52
2023-03-03T02:12:51.023Z,-1.48
2023-03-03T02:15:20.907Z,-1.46
2023-03-03T02:17:50.762Z,-1.53
2023-03-03T02:20:25.024Z,-1.58
2023-03-03T02:22:55.024Z,-1.70
2023-03-03T02:25:26.173Z,-1.74
2023-03-03T02:27:57.203Z,-1.74
2023-03-03T02:30:25.488Z,-1.72
2023-03-03T02:32:53.582Z,-1.70
2023-03-03T02:35:32.618Z,-1.76
2023-03-03T02:38:14.071Z,-1.71
2023-03-03T02:40:45.222Z,-1.68
2023-03-03T02:43:14.773Z,-1.66
2023-03-03T02:45:44.676Z,-1.66
2023-03-03T02:48:12.742Z,-1.68
2023-03-03T02:50:40.885Z,-1.66
2023-03-03T02:53:09.260Z,-1.67
2023-03-03T02:55:37.336Z,-1.64
2023-03-03T02:58:06.851Z,-1.69
2023-03-03T03:00:36.330Z,-1.73
2023-03-03T03:03:04.755Z,-1.71
2023-03-03T03:05:33.917Z,-1.75
2023-03-03T03:08:05.059Z,-1.71
2023-03-03T03:10:33.168Z,-1.73
2023-03-03T03:13:01.578Z,-1.70
2023-03-03T03:15:29.758Z,-1.68
2023-03-03T03:17:59.274Z,-1.66
2023-03-03T03:20:28.784Z,-1.67
2023-03-03T03:22:56.868Z,-1.69
2023-03-03T03:25:25.150Z,-1.77
2023-03-03T03:27:53.288Z,-1.74
2023-03-03T03:30:22.571Z,-1.72
2023-03-03T03:32:50.988Z,-1.79
2023-03-03T03:35:20.952Z,-1.73
2023-03-03T03:37:49.180Z,-1.78
2023-03-03T03:40:17.450Z,-1.75
2023-03-03T03:42:46.141Z,-1.68
2023-03-03T03:45:15.479Z,-1.74
2023-03-03T03:47:47.249Z,-1.72
2023-03-03T03:50:16.624Z,-1.76
2023-03-03T03:52:47.307Z,-1.73
2023-03-03T03:55:15.909Z,-1.67
2023-03-03T03:57:44.091Z,-1.65
2023-03-03T04:00:13.032Z,-1.64
2023-03-03T04:02:50.408Z,-1.57
2023-03-03T04:05:19.587Z,-1.66
2023-03-03T04:07:49.546Z,-1.62
2023-03-03T04:10:19.471Z,-1.62
2023-03-03T04:12:48.311Z,-1.66
2023-03-03T04:15:17.228Z,-1.71
2023-03-03T04:17:45.456Z,-1.74
2023-03-03T04:20:15.417Z,-1.81
2023-03-03T04:22:45.191Z,-1.83
2023-03-03T04:25:16.468Z,-1.83
2023-03-03T04:27:46.001Z,-1.81
2023-03-03T04:30:16.570Z,-1.83
2023-03-03T04:32:47.841Z,-1.77
2023-03-03T04:35:19.344Z,-1.74
2023-03-03T04:37:47.420Z,-1.69
2023-03-03T04:40:18.976Z,-1.70
2023-03-03T04:42:49.453Z,-1.69
2023-03-03T04:45:17.816Z,-1.74
2023-03-03T04:47:47.393Z,-1.76
2023-03-03T04:50:16.492Z,-1.78
2023-03-03T04:52:44.704Z,-1.81
2023-03-03T04:55:14.213Z,-1.79
2023-03-03T04:57:43.771Z,-1.79
2023-03-03T05:00:13.457Z,-1.84
2023-03-03T05:02:41.639Z,-1.79
2023-03-03T05:05:11.292Z,-1.70
2023-03-03T05:07:39.315Z,-1.77
2023-03-03T05:10:08.661Z,-1.77
2023-03-03T05:12:36.730Z,-1.77
2023-03-03T05:15:07.253Z,-1.77
2023-03-03T05:17:35.388Z,-1.80
2023-03-03T05:20:03.489Z,-1.83
2023-03-03T05:22:31.927Z,-1.91
2023-03-03T05:24:59.977Z,-1.86
2023-03-03T05:27:27.996Z,-1.87
2023-03-03T05:29:56.142Z,-1.82
2023-03-03T05:32:25.675Z,-1.83
2023-03-03T05:34:54.130Z,-1.82
2023-03-03T05:37:24.405Z,-1.87
2023-03-03T05:39:52.475Z,-1.91
2023-03-03T05:42:20.575Z,-1.87
2023-03-03T05:44:48.675Z,-1.78
2023-03-03T05:47:17.039Z,-1.73
2023-03-03T05:49:46.504Z,-1.81
2023-03-03T05:52:14.558Z,-1.84
2023-03-03T05:54:42.676Z,-1.96
2023-03-03T05:57:10.747Z,-1.98
2023-03-03T05:59:39.301Z,-1.92
2023-03-03T06:02:07.814Z,-1.95
2023-03-03T06:04:35.904Z,-1.92
2023-03-03T06:07:05.301Z,-1.94
2023-03-03T06:09:33.500Z,-1.96
2023-03-03T06:12:01.633Z,-1.90
2023-03-03T06:14:29.707Z,-1.83
2023-03-03T06:16:58.392Z,-1.82
2023-03-03T06:19:27.124Z,-1.91
2023-03-03T06:21:55.166Z,-1.90
2023-03-03T06:24:25.401Z,-1.95
2023-03-03T06:26:53.492Z,-1.99
2023-03-03T06:29:21.852Z,-2.01
2023-03-03T06:31:49.950Z,-1.99
2023-03-03T06:34:18.030Z,-1.96
2023-03-03T06:36:46.170Z,-1.93
2023-03-03T06:39:14.176Z,-1.89
2023-03-03T06:41:43.570Z,-1.84
2023-03-03T06:44:13.067Z,-1.85
2023-03-03T06:46:41.138Z,-1.79
2023-03-03T06:49:09.178Z,-1.80
2023-03-03T06:51:39.805Z,-1.75
2023-03-03T06:54:12.443Z,-1.80
2023-03-03T06:56:40.993Z,-1.82
2023-03-03T06:59:14.069Z,-1.80
2023-03-03T07:01:42.150Z,-1.79
2023-03-03T07:04:17.004Z,-1.79
2023-03-03T07:06:45.093Z,-1.75
2023-03-03T07:09:19.025Z,-1.75
2023-03-03T07:11:47.073Z,-1.72
2023-03-03T07:14:18.022Z,-1.71
2023-03-03T07:16:46.180Z,-1.71
2023-03-03T07:19:19.089Z,-1.66
2023-03-03T07:21:47.218Z,-1.63
2023-03-03T07:24:29.049Z,-1.61
2023-03-03T07:27:00.772Z,-1.57
2023-03-03T07:29:31.253Z,-1.56
2023-03-03T07:31:59.702Z,-1.55
2023-03-03T07:34:31.662Z,-1.54
2023-03-03T07:37:00.890Z,-1.55
2023-03-03T07:39:34.047Z,-1.48
2023-03-03T07:42:19.329Z,-1.48
2023-03-03T07:44:54.817Z,-1.41
2023-03-03T07:47:25.250Z,-1.41
2023-03-03T07:49:53.724Z,-1.38
2023-03-03T07:52:27.439Z,-1.42
2023-03-03T07:54:56.177Z,-1.33
2023-03-03T07:57:25.978Z,-1.29
2023-03-03T07:59:56.498Z,-1.27
2023-03-03T08:02:41.057Z,-1.19
2023-03-03T08:05:32.759Z,-1.24
2023-03-03T08:08:13.328Z,-1.25
2023-03-03T08:10:43.571Z,-1.17
2023-03-03T08:13:18.237Z,-1.22
2023-03-03T08:15:48.120Z,-1.25
2023-03-03T08:18:20.683Z,-1.21
2023-03-03T08:20:49.703Z,-1.14
2023-03-03T08:23:18.540Z,-1.15
2023-03-03T08:25:46.655Z,-1.14
2023-03-03T08:28:15.217Z,-1.22
2023-03-03T08:30:43.876Z,-1.16
2023-03-03T08:33:13.717Z,-1.09
2023-03-03T08:35:41.880Z,-1.06
2023-03-03T08:38:10.036Z,-1.02
2023-03-03T08:40:38.177Z,-0.96
2023-03-03T08:43:06.555Z,-0.92
2023-03-03T08:45:34.636Z,-0.93
2023-03-03T08:48:05.564Z,-0.96
2023-03-03T08:50:35.558Z,-0.93
2023-03-03T08:53:03.573Z,-0.91
2023-03-03T08:55:31.697Z,-0.99
2023-03-03T08:57:59.986Z,-0.97
2023-03-03T09:00:28.064Z,-0.90
2023-03-03T09:02:56.099Z,-0.81
2023-03-03T09:05:24.497Z,-0.78
2023-03-03T09:07:54.369Z,-0.77
2023-03-03T09:10:27.396Z,-0.77
2023-03-03T09:12:58.299Z,-0.76
2023-03-03T09:15:27.172Z,-0.80
2023-03-03T09:17:55.217Z,-0.71
2023-03-03T09:20:32.143Z,-0.69
2023-03-03T09:23:01.665Z,-0.64
2023-03-03T09:25:33.459Z,-0.66
2023-03-03T09:28:02.140Z,-0.66
2023-03-03T09:30:36.190Z,-0.68
2023-03-03T09:33:07.029Z,-0.67
2023-03-03T09:35:37.594Z,-0.66
2023-03-03T09:38:18.222Z,-0.65
2023-03-03T09:40:53.475Z,-0.56
2023-03-03T09:43:24.208Z,-0.68
2023-03-03T09:45:56.846Z,-0.63
2023-03-03T09:48:40.704Z,-0.66
2023-03-03T09:51:35.454Z,-0.59
2023-03-03T09:54:14.131Z,-0.54
2023-03-03T09:56:44.633Z,-0.47
2023-03-03T09:59:23.288Z,-0.45
2023-03-03T10:01:56.933Z,-0.55
2023-03-03T10:04:45.620Z,-0.50
2023-03-03T10:07:21.979Z,-0.45
2023-03-03T10:10:19.188Z,-0.49
2023-03-03T10:12:50.806Z,-0.44
2023-03-03T10:15:23.575Z,-0.46
2023-03-03T10:17:52.351Z,-0.43
2023-03-03T10:20:49.422Z,-0.44
2023-03-03T10:23:22.718Z,-0.42
2023-03-03T10:25:55.782Z,-0.46
2023-03-03T10:28:55.807Z,-0.45
2023-03-03T10:31:29.622Z,-0.33
2023-03-03T10:34:00.610Z,-0.25
2023-03-03T10:36:35.443Z,-0.17
2023-03-03T10:39:11.269Z,-0.16
2023-03-03T10:41:52.498Z,-0.13
2023-03-03T10:44:28.986Z,-0.24
2023-03-03T10:47:02.587Z,-0.30
2023-03-03T10:49:52.117Z,-0.30
2023-03-03T10:52:24.633Z,-0.26
2023-03-03T10:55:05.541Z,-0.24
2023-03-03T10:57:36.766Z,-0.25
2023-03-03T11:00:16.499Z,-0.18
2023-03-03T11:02:50.470Z,-0.23
2023-03-03T11:05:31.163Z,-0.20
2023-03-03T11:08:00.910Z,-0.17
2023-03-03T11:10:39.345Z,-0.09
2023-03-03T11:13:13.821Z,-0.20
2023-03-03T11:16:03.017Z,-0.19
2023-03-03T11:18:36.628Z,-0.24
2023-03-03T11:21:09.855Z,-0.24
2023-03-03T11:23:50.003Z,-0.41
2023-03-03T11:26:22.338Z,-0.38
2023-03-03T11:28:59.068Z,-0.36
2023-03-03T11:31:31.730Z,-0.37
2023-03-03T11:34:02.412Z,-0.36
2023-03-03T11:36:34.601Z,-0.29
2023-03-03T11:39:04.013Z,-0.26
2023-03-03T11:41:33.249Z,-0.20
2023-03-03T11:44:06.363Z,-0.19
2023-03-03T11:46:37.951Z,-0.18
2023-03-03T11:49:07.394Z,-0.17
2023-03-03T11:51:44.187Z,-0.14
2023-03-03T11:54:17.065Z,-0.09
2023-03-03T11:56:45.754Z,-0.12
2023-03-03T11:59:37.456Z,-0.24
2023-03-03T12:02:10.599Z,-0.27
2023-03-03T12:04:40.415Z,-0.28
2023-03-03T12:07:19.339Z,-0.41
2023-03-03T12:09:51.119Z,-0.29
2023-03-03T12:12:20.595Z,-0.21
2023-03-03T12:15:03.226Z,-0.16
2023-03-03T12:17:46.148Z,-0.25
2023-03-03T12:20:17.113Z,-0.22
2023-03-03T12:23:04.456Z,-0.12
2023-03-03T12:25:37.261Z,-0.16
2023-03-03T12:28:07.533Z,-0.23
2023-03-03T12:31:02.046Z,-0.14
2023-03-03T12:33:36.639Z,-0.08
2023-03-03T12:36:11.256Z,-0.15
2023-03-03T12:38:41.912Z,-0.16
2023-03-03T12:41:13.521Z,-0.08
2023-03-03T12:43:48.264Z,-0.10
2023-03-03T12:46:28.511Z,-0.11
2023-03-03T12:48:57.033Z,-0.15
2023-03-03T12:51:34.788Z,-0.14
2023-03-03T12:54:16.272Z,-0.12
2023-03-03T12:56:47.097Z,-0.18
2023-03-03T12:59:18.376Z,-0.16
2023-03-03T13:01:57.614Z,-0.15
2023-03-03T13:04:32.894Z,-0.06
2023-03-03T13:07:03.799Z,-0.04
2023-03-03T13:09:36.621Z,-0.09
2023-03-03T13:12:23.265Z,-0.13
2023-03-03T13:14:52.954Z,-0.10
2023-03-03T13:17:24.357Z,-0.11
2023-03-03T13:19:54.378Z,-0.19
2023-03-03T13:22:31.842Z,-0.22
2023-03-03T13:25:01.503Z,-0.22
2023-03-03T13:27:33.542Z,-0.28
2023-03-03T13:30:02.609Z,-0.50
2023-03-03T13:32:35.417Z,-0.52
2023-03-03T13:35:06.144Z,-0.44
2023-03-03T13:37:36.790Z,-0.59
2023-03-03T13:40:08.639Z,-0.52
2023-03-03T13:42:40.152Z,-0.43
2023-03-03T13:45:14.009Z,-0.37
2023-03-03T13:47:47.125Z,-0.37
2023-03-03T13:50:20.842Z,-0.44
2023-03-03T13:52:54.286Z,-0.39
2023-03-03T13:55:23.753Z,-0.40
2023-03-03T13:58:02.289Z,-0.47
2023-03-03T14:00:41.328Z,-0.50
2023-03-03T14:03:39.288Z,-0.65
2023-03-03T14:06:08.991Z,-0.56
2023-03-03T14:08:59.536Z,-0.47
2023-03-03T14:11:30.508Z,-0.41
2023-03-03T14:14:03.659Z,-0.41
2023-03-03T14:16:40.749Z,-0.38
2023-03-03T14:19:12.089Z,-0.37
2023-03-03T14:21:42.354Z,-0.49
2023-03-03T14:24:14.868Z,-0.50
2023-03-03T14:26:49.692Z,-0.48
2023-03-03T14:29:24.541Z,-0.56
2023-03-03T14:31:52.663Z,-0.52
2023-03-03T14:34:39.548Z,-0.56
2023-03-03T14:37:22.914Z,-0.61
2023-03-03T14:40:08.199Z,-0.67
2023-03-03T14:42:38.249Z,-0.69
2023-03-03T14:45:29.447Z,-0.70
2023-03-03T14:47:58.239Z,-0.76
2023-03-03T14:50:33.953Z,-0.85
2023-03-03T14:53:24.258Z,-0.89
2023-03-03T14:55:53.235Z,-1.03
2023-03-03T14:58:29.535Z,-0.99
2023-03-03T15:01:16.603Z,-0.93
2023-03-03T15:03:49.704Z,-0.96
2023-03-03T15:06:36.650Z,-1.15
2023-03-03T15:09:29.793Z,-1.17
2023-03-03T15:11:58.290Z,-1.24
2023-03-03T15:14:31.236Z,-1.22
2023-03-03T15:17:00.032Z,-1.20
2023-03-03T15:19:41.575Z,-1.20
2023-03-03T15:22:15.890Z,-1.22
2023-03-03T15:24:47.293Z,-1.29
2023-03-03T15:27:20.134Z,-1.32
2023-03-03T15:29:57.281Z,-1.35
2023-03-03T15:32:27.500Z,-1.25
2023-03-03T15:35:00.143Z,-1.27
2023-03-03T15:37:37.322Z,-1.23
2023-03-03T15:40:14.504Z,-1.20
2023-03-03T15:42:45.311Z,-1.28
2023-03-03T15:45:18.292Z,-1.18
2023-03-03T15:47:54.917Z,-1.13
2023-03-03T15:50:27.966Z,-1.10
2023-03-03T15:53:04.816Z,-1.10
2023-03-03T15:55:56.126Z,-1.07
2023-03-03T15:58:43.699Z,-1.09
2023-03-03T16:01:15.185Z,-1.10
2023-03-03T16:03:46.534Z,-1.05
2023-03-03T16:06:17.844Z,-1.02
2023-03-03T16:08:50.981Z,-1.17
2023-03-03T16:11:22.568Z,-1.24
2023-03-03T16:13:59.489Z,-1.31
2023-03-03T16:16:34.139Z,-1.30
2023-03-03T16:19:12.802Z,-1.28
2023-03-03T16:22:01.450Z,-1.22
2023-03-03T16:24:34.622Z,-1.34
2023-03-03T16:27:05.696Z,-1.40
2023-03-03T16:29:40.348Z,-1.37
2023-03-03T16:32:11.490Z,-1.38
2023-03-03T16:34:44.371Z,-1.41
2023-03-03T16:37:16.249Z,-1.34
2023-03-03T16:39:53.000Z,-1.39
2023-03-03T16:42:25.474Z,-1.35
2023-03-03T16:45:01.473Z,-1.33
2023-03-03T16:47:35.231Z,-1.34
2023-03-03T16:50:12.003Z,-1.32
2023-03-03T16:52:42.766Z,-1.45
2023-03-03T16:55:14.263Z,-1.50
2023-03-03T16:57:47.202Z,-1.45
2023-03-03T17:00:16.141Z,-1.53
2023-03-03T17:03:11.964Z,-1.65
2023-03-03T17:05:43.895Z,-1.73
2023-03-03T17:08:18.910Z,-1.72
2023-03-03T17:10:51.264Z,-1.63
2023-03-03T17:13:30.347Z,-1.61
2023-03-03T17:16:05.217Z,-1.60
2023-03-03T17:18:39.538Z,-1.61
2023-03-03T17:21:12.212Z,-1.65
2023-03-03T17:23:47.992Z,-1.74
2023-03-03T17:26:29.625Z,-1.73
2023-03-03T17:29:07.468Z,-1.73
2023-03-03T17:31:39.030Z,-1.75
2023-03-03T17:34:17.197Z,-1.66
2023-03-03T17:36:51.601Z,-1.66
2023-03-03T17:39:32.866Z,-1.64
2023-03-03T17:42:05.421Z,-1.80
2023-03-03T17:44:37.503Z,-1.74
2023-03-03T17:47:08.264Z,-1.72
2023-03-03T17:50:01.496Z,-1.66
2023-03-03T17:53:06.169Z,-1.65
2023-03-03T17:55:42.307Z,-1.59
2023-03-03T17:58:25.777Z,-1.59
2023-03-03T18:00:59.837Z,-1.57
2023-03-03T18:03:39.491Z,-1.63
2023-03-03T18:06:28.513Z,-1.63
2023-03-03T18:09:14.075Z,-1.62
2023-03-03T18:11:50.648Z,-1.69
2023-03-03T18:14:49.535Z,-1.75
2023-03-03T18:17:25.286Z,-1.87
2023-03-03T18:20:00.498Z,-1.84
2023-03-03T18:22:32.440Z,-1.87
2023-03-03T18:25:02.912Z,-1.87
2023-03-03T18:27:33.255Z,-1.90
2023-03-03T18:30:49.440Z,-1.98
2023-03-03T18:33:20.332Z,-2.01
2023-03-03T18:35:49.538Z,-2.01
2023-03-03T18:38:32.263Z,-1.95
2023-03-03T18:41:12.121Z,-1.91
2023-03-03T18:43:52.261Z,-2.02
2023-03-03T18:46:46.778Z,-1.99
2023-03-03T18:49:16.448Z,-1.99
2023-03-03T18:52:14.853Z,-1.94
2023-03-03T18:54:42.961Z,-1.95
2023-03-03T18:57:18.764Z,-1.95
2023-03-03T19:00:02.257Z,-2.04
2023-03-03T19:02:34.740Z,-1.94
2023-03-03T19:05:29.005Z,-1.96
2023-03-03T19:08:00.653Z,-1.99
2023-03-03T19:10:51.844Z,-1.96
2023-03-03T19:13:43.026Z,-1.92
2023-03-03T19:16:11.624Z,-1.89
2023-03-03T19:19:05.871Z,-1.91
2023-03-03T19:21:35.697Z,-1.93
2023-03-03T19:24:04.539Z,-1.88
2023-03-03T19:27:01.915Z,-1.89
2023-03-03T19:29:55.710Z,-1.84
2023-03-03T19:32:32.535Z,-1.79
2023-03-03T19:35:05.784Z,-1.79
2023-03-03T19:37:41.442Z,-1.82
2023-03-03T19:40:16.341Z,-1.80
2023-03-03T19:42:47.632Z,-1.82
2023-03-03T19:45:28.683Z,-1.83
2023-03-03T19:48:01.864Z,-1.89
2023-03-03T19:50:36.426Z,-1.84
2023-03-03T19:53:11.843Z,-1.84
2023-03-03T19:55:46.078Z,-1.84
2023-03-03T19:58:22.398Z,-1.84
2023-03-03T20:00:52.026Z,-1.80
2023-03-03T20:03:44.075Z,-1.80
2023-03-03T20:06:17.694Z,-1.81
2023-03-03T20:08:50.014Z,-1.91
2023-03-03T20:11:23.000Z,-1.93
2023-03-03T20:13:54.192Z,-1.93
2023-03-03T20:16:27.744Z,-1.90
2023-03-03T20:19:09.452Z,-1.93
2023-03-03T20:21:38.738Z,-1.96
2023-03-03T20:24:27.289Z,-1.95
2023-03-03T20:26:58.103Z,-1.97
2023-03-03T20:29:40.506Z,-1.94
2023-03-03T20:32:12.096Z,-1.90
2023-03-03T20:34:44.030Z,-1.88
2023-03-03T20:37:14.325Z,-1.84
2023-03-03T20:39:53.817Z,-1.82
2023-03-03T20:42:28.936Z,-1.83
2023-03-03T20:45:05.585Z,-1.85
2023-03-03T20:47:38.256Z,-1.82
2023-03-03T20:50:17.397Z,-1.82
2023-03-03T20:52:53.092Z,-1.82
2023-03-03T20:55:25.219Z,-1.83
2023-03-03T20:57:55.132Z,-1.83
2023-03-03T21:00:25.627Z,-1.83
2023-03-03T21:02:57.238Z,-1.78
2023-03-03T21:05:25.344Z,-1.74
2023-03-03T21:07:55.208Z,-1.75
2023-03-03T21:10:25.590Z,-1.75
2023-03-03T21:12:54.455Z,-1.73
2023-03-03T21:15:25.549Z,-1.73
2023-03-03T21:17:55.219Z,-1.73
2023-03-03T21:20:28.627Z,-1.75
2023-03-03T21:22:57.112Z,-1.77
2023-03-03T21:25:52.246Z,-1.76
2023-03-03T21:28:22.531Z,-1.81
2023-03-03T21:31:10.378Z,-1.77
2023-03-03T21:33:49.751Z,-1.76
2023-03-03T21:36:18.766Z,-1.75
2023-03-03T21:38:47.420Z,-1.72
2023-03-03T21:41:17.646Z,-1.76
2023-03-03T21:43:46.998Z,-1.78
2023-03-03T21:46:15.195Z,-1.84
2023-03-03T21:48:44.058Z,-1.88
2023-03-03T21:51:14.114Z,-1.88
2023-03-03T21:53:44.113Z,-1.85
2023-03-03T21:56:13.878Z,-1.90
2023-03-03T21:58:43.511Z,-1.93
2023-03-03T22:01:11.832Z,-1.89
2023-03-03T22:03:40.698Z,-1.90
2023-03-03T22:06:09.081Z,-1.86
2023-03-03T22:08:37.433Z,-1.83
2023-03-03T22:11:05.924Z,-1.81
2023-03-03T22:13:34.152Z,-1.85
2023-03-03T22:16:03.670Z,-1.82
2023-03-03T22:18:31.817Z,-1.80
2023-03-03T22:20:59.888Z,-1.79
2023-03-03T22:23:28.383Z,-1.78
2023-03-03T22:25:56.436Z,-1.78
2023-03-03T22:28:24.482Z,-1.77
2023-03-03T22:30:52.566Z,-1.79
2023-03-03T22:33:22.076Z,-1.81
2023-03-03T22:35:50.512Z,-1.84
2023-03-03T22:38:18.670Z,-1.80
2023-03-03T22:40:46.801Z,-1.78
2023-03-03T22:43:15.088Z,-1.79
2023-03-03T22:45:44.729Z,-1.77
2023-03-03T22:48:12.863Z,-1.75
2023-03-03T22:50:44.734Z,-1.75
2023-03-03T22:53:12.790Z,-1.73
2023-03-03T22:55:40.849Z,-1.73
2023-03-03T22:58:09.620Z,-1.76
2023-03-03T23:00:38.422Z,-1.76
2023-03-03T23:03:06.870Z,-1.76
2023-03-03T23:05:35.893Z,-1.75
2023-03-03T23:08:05.632Z,-1.71
2023-03-03T23:10:33.823Z,-1.71
2023-03-03T23:13:01.872Z,-1.72
2023-03-03T23:15:30.126Z,-1.74
2023-03-03T23:17:58.483Z,-1.77
2023-03-03T23:20:27.084Z,-1.75
2023-03-03T23:22:55.206Z,-1.75
2023-03-03T23:25:24.665Z,-1.73
2023-03-03T23:27:53.960Z,-1.74
2023-03-03T23:30:22.444Z,-1.75
2023-03-03T23:32:50.614Z,-1.76
2023-03-03T23:35:18.956Z,-1.76
2023-03-03T23:37:47.077Z,-1.77
2023-03-03T23:40:15.754Z,-1.78
2023-03-03T23:42:45.255Z,-1.77
2023-03-03T23:45:13.905Z,-1.76
2023-03-03T23:47:41.986Z,-1.74
2023-03-03T23:50:11.300Z,-1.73
2023-03-03T23:52:39.400Z,-1.79
2023-03-03T23:55:08.577Z,-1.79
2023-03-03T23:57:36.626Z,-1.77
